createdAt,value
2023-04-30T00:02:09.587Z,11.25
2023-04-30T00:04:36.060Z,11.40
2023-04-30T00:07:02.711Z,11.25
2023-04-30T00:09:29.241Z,11.02
2023-04-30T00:11:55.827Z,11.98
2023-04-30T00:14:22.263Z,11.40
2023-04-30T00:16:48.842Z,11.02
2023-04-30T00:19:15.544Z,11.55
2023-04-30T00:21:42.580Z,11.52
2023-04-30T00:24:09.065Z,10.93
2023-04-30T00:26:35.433Z,10.55
2023-04-30T00:29:01.868Z,10.65
2023-04-30T00:31:28.638Z,9.63
2023-04-30T00:33:55.158Z,10.32
2023-04-30T00:36:21.522Z,9.38
2023-04-30T00:38:47.948Z,9.30
2023-04-30T00:41:14.389Z,9.02
2023-04-30T00:43:40.836Z,8.48
2023-04-30T00:46:07.307Z,8.88
2023-04-30T00:48:33.800Z,9.38
2023-04-30T00:51:02.757Z,9.63
2023-04-30T00:53:29.313Z,8.82
2023-04-30T00:55:56.344Z,8.32
2023-04-30T00:58:23.153Z,8.80
2023-04-30T01:00:50.309Z,8.73
2023-04-30T01:03:16.809Z,8.50
2023-04-30T01:05:43.418Z,8.45
2023-04-30T01:08:10.675Z,8.27
2023-04-30T01:11:00.849Z,7.97
2023-04-30T01:13:39.359Z,8.32
2023-04-30T01:16:16.256Z,8.18
2023-04-30T01:18:58.098Z,8.63
2023-04-30T01:21:24.672Z,8.98
2023-04-30T01:24:30.342Z,8.90
2023-04-30T01:27:12.116Z,9.10
2023-04-30T01:29:39.751Z,8.65
2023-04-30T01:32:06.180Z,9.10
2023-04-30T01:34:32.692Z,10.05
2023-04-30T01:37:04.322Z,10.02
2023-04-30T01:39:56.800Z,9.63
2023-04-30T01:42:36.790Z,10.95
2023-04-30T01:45:16.987Z,10.07
2023-04-30T01:48:03.382Z,9.68
2023-04-30T01:50:41.904Z,10.25
2023-04-30T01:53:13.998Z,9.60
2023-04-30T01:55:47.793Z,11.38
2023-04-30T01:58:15.472Z,9.45
2023-04-30T02:00:42.274Z,9.77
2023-04-30T02:03:09.167Z,8.65
2023-04-30T02:05:35.789Z,8.73
2023-04-30T02:08:02.132Z,8.35
2023-04-30T02:10:30.249Z,8.23
2023-04-30T02:12:56.596Z,7.82
2023-04-30T02:15:23.215Z,7.15
2023-04-30T02:17:50.004Z,7.00
2023-04-30T02:20:16.548Z,7.22
2023-04-30T02:22:43.298Z,6.65
2023-04-30T02:25:11.312Z,6.70
2023-04-30T02:27:38.045Z,7.05
2023-04-30T02:30:04.928Z,6.13
2023-04-30T02:32:31.476Z,6.68
2023-04-30T02:34:58.315Z,6.30
2023-04-30T02:37:24.992Z,6.32
2023-04-30T02:39:51.794Z,6.47
2023-04-30T02:42:18.389Z,6.32
2023-04-30T02:44:44.811Z,6.05
2023-04-30T02:47:11.519Z,6.20
2023-04-30T02:49:37.993Z,5.80
2023-04-30T02:52:04.770Z,5.93
2023-04-30T02:54:31.472Z,5.53
2023-04-30T02:56:58.256Z,5.97
2023-04-30T02:59:24.723Z,5.40
2023-04-30T03:01:51.230Z,5.20
2023-04-30T03:04:17.654Z,5.50
2023-04-30T03:06:44.233Z,5.72
2023-04-30T03:09:10.836Z,5.18
2023-04-30T03:11:37.843Z,5.22
2023-04-30T03:14:04.917Z,5.80
2023-04-30T03:16:31.725Z,5.47
2023-04-30T03:18:58.380Z,5.13
2023-04-30T03:21:24.859Z,5.30
2023-04-30T03:23:51.841Z,5.60
2023-04-30T03:26:18.331Z,5.38
2023-04-30T03:28:44.773Z,5.35
2023-04-30T03:31:11.273Z,4.93
2023-04-30T03:33:37.788Z,6.03
2023-04-30T03:36:04.565Z,5.40
2023-04-30T03:38:30.975Z,5.53
2023-04-30T03:40:57.627Z,4.90
2023-04-30T03:43:24.339Z,5.38
2023-04-30T03:45:50.927Z,5.68
2023-04-30T03:48:17.661Z,5.47
2023-04-30T03:50:44.262Z,5.85
2023-04-30T03:53:10.915Z,5.30
2023-04-30T03:55:37.815Z,5.43
2023-04-30T03:58:04.692Z,5.63
2023-04-30T04:00:31.112Z,5.50
2023-04-30T04:02:59.367Z,5.75
2023-04-30T04:05:26.492Z,5.53
2023-04-30T04:07:52.956Z,5.53
2023-04-30T04:10:19.318Z,5.60
2023-04-30T04:12:46.248Z,5.55
2023-04-30T04:15:13.297Z,5.20
2023-04-30T04:17:39.828Z,5.28
2023-04-30T04:20:07.464Z,5.65
2023-04-30T04:22:33.815Z,5.80
2023-04-30T04:25:00.259Z,5.43
2023-04-30T04:27:26.807Z,6.18
2023-04-30T04:29:55.024Z,5.60
2023-04-30T04:32:22.773Z,5.65
2023-04-30T04:34:49.733Z,5.60
2023-04-30T04:37:17.476Z,5.40
2023-04-30T04:39:45.209Z,5.57
2023-04-30T04:42:12.311Z,5.38
2023-04-30T04:44:39.599Z,5.60
2023-04-30T04:47:06.383Z,5.32
2023-04-30T04:49:32.841Z,4.97
2023-04-30T04:51:59.579Z,5.20
2023-04-30T04:54:26.241Z,5.40
2023-04-30T04:56:52.644Z,5.30
2023-04-30T04:59:19.097Z,4.97
2023-04-30T05:01:45.537Z,5.10
2023-04-30T05:04:13.802Z,5.43
2023-04-30T05:06:40.977Z,5.18
2023-04-30T05:09:09.494Z,5.22
2023-04-30T05:11:36.438Z,4.90
2023-04-30T05:14:02.925Z,5.20
2023-04-30T05:16:29.646Z,4.80
2023-04-30T05:18:56.042Z,4.95
2023-04-30T05:21:23.028Z,4.68
2023-04-30T05:23:49.717Z,4.70
2023-04-30T05:26:16.429Z,4.90
2023-04-30T05:28:42.835Z,4.53
2023-04-30T05:31:09.336Z,4.28
2023-04-30T05:33:37.083Z,4.55
2023-04-30T05:36:04.032Z,4.78
2023-04-30T05:38:30.811Z,4.55
2023-04-30T05:40:57.191Z,4.50
2023-04-30T05:43:23.725Z,4.40
2023-04-30T05:45:50.117Z,4.22
2023-04-30T05:48:16.650Z,4.32
2023-04-30T05:50:43.509Z,4.40
2023-04-30T05:53:09.983Z,4.65
2023-04-30T05:55:36.456Z,4.60
2023-04-30T05:58:02.856Z,4.43
2023-04-30T06:00:29.405Z,4.25
2023-04-30T06:02:55.997Z,4.15
2023-04-30T06:05:22.552Z,4.40
2023-04-30T06:07:49.071Z,4.22
2023-04-30T06:10:15.665Z,4.00
2023-04-30T06:12:42.099Z,4.30
2023-04-30T06:15:08.756Z,3.90
2023-04-30T06:17:35.452Z,3.80
2023-04-30T06:20:07.017Z,4.00
2023-04-30T06:22:34.664Z,4.25
2023-04-30T06:25:01.510Z,4.22
2023-04-30T06:27:28.174Z,4.00
2023-04-30T06:29:54.841Z,4.50
2023-04-30T06:32:21.557Z,4.20
2023-04-30T06:34:48.178Z,4.22
2023-04-30T06:37:14.513Z,4.32
2023-04-30T06:39:40.866Z,4.72
2023-04-30T06:42:07.322Z,4.70
2023-04-30T06:44:33.729Z,4.22
2023-04-30T06:47:00.119Z,4.63
2023-04-30T06:49:27.530Z,4.32
2023-04-30T06:51:55.674Z,4.43
2023-04-30T06:54:22.824Z,4.25
2023-04-30T06:56:49.226Z,4.25
2023-04-30T06:59:15.572Z,4.10
2023-04-30T07:01:42.117Z,4.05
2023-04-30T07:04:08.681Z,3.72
2023-04-30T07:06:35.395Z,3.88
2023-04-30T07:09:02.409Z,3.90
2023-04-30T07:11:28.761Z,4.22
2023-04-30T07:13:55.137Z,5.20
2023-04-30T07:16:21.578Z,4.38
2023-04-30T07:18:52.352Z,4.65
2023-04-30T07:21:18.688Z,4.28
2023-04-30T07:23:45.543Z,4.15
2023-04-30T07:26:11.933Z,4.53
2023-04-30T07:28:38.342Z,4.43
2023-04-30T07:31:04.866Z,4.07
2023-04-30T07:33:31.369Z,4.50
2023-04-30T07:35:58.490Z,4.25
2023-04-30T07:38:25.400Z,5.70
2023-04-30T07:40:51.777Z,5.25
2023-04-30T07:43:18.453Z,4.60
2023-04-30T07:45:45.224Z,4.20
2023-04-30T07:48:11.605Z,4.70
2023-04-30T07:50:38.060Z,4.15
2023-04-30T07:53:07.099Z,4.03
2023-04-30T07:55:33.523Z,4.13
2023-04-30T07:58:00.143Z,4.25
2023-04-30T08:00:26.528Z,4.32
2023-04-30T08:02:53.172Z,4.53
2023-04-30T08:05:19.867Z,4.40
2023-04-30T08:07:46.291Z,4.20
2023-04-30T08:10:12.776Z,4.05
2023-04-30T08:12:39.324Z,3.90
2023-04-30T08:15:07.461Z,4.00
2023-04-30T08:17:34.839Z,4.55
2023-04-30T08:20:03.486Z,4.78
2023-04-30T08:22:30.240Z,4.57
2023-04-30T08:24:56.814Z,3.90
2023-04-30T08:27:23.479Z,3.80
2023-04-30T08:29:49.978Z,4.30
2023-04-30T08:32:16.536Z,3.97
2023-04-30T08:34:43.556Z,4.15
2023-04-30T08:37:10.391Z,5.05
2023-04-30T08:39:36.741Z,3.97
2023-04-30T08:42:08.385Z,4.35
2023-04-30T08:44:36.243Z,4.18
2023-04-30T08:47:03.719Z,4.45
2023-04-30T08:49:32.945Z,4.53
2023-04-30T08:52:01.071Z,4.22
2023-04-30T08:54:30.742Z,4.10
2023-04-30T08:56:57.509Z,4.15
2023-04-30T08:59:24.013Z,4.28
2023-04-30T09:01:53.485Z,4.30
2023-04-30T09:04:20.400Z,4.40
2023-04-30T09:06:46.787Z,3.88
2023-04-30T09:09:15.083Z,4.03
2023-04-30T09:11:42.405Z,4.05
2023-04-30T09:14:09.428Z,4.20
2023-04-30T09:16:50.518Z,4.20
2023-04-30T09:19:27.934Z,4.05
2023-04-30T09:21:54.716Z,4.10
2023-04-30T09:24:21.250Z,4.20
2023-04-30T09:26:48.039Z,4.05
2023-04-30T09:29:15.008Z,3.72
2023-04-30T09:31:47.133Z,3.90
2023-04-30T09:34:14.428Z,4.20
2023-04-30T09:36:54.988Z,3.70
2023-04-30T09:39:22.140Z,4.20
2023-04-30T09:41:50.576Z,3.78
2023-04-30T09:44:27.425Z,5.40
2023-04-30T09:46:53.873Z,7.40
2023-04-30T09:49:20.823Z,3.78
2023-04-30T09:51:57.873Z,4.00
2023-04-30T09:54:27.852Z,3.10
2023-04-30T09:56:56.461Z,3.10
2023-04-30T09:59:27.754Z,2.85
2023-04-30T10:01:55.352Z,3.08
2023-04-30T10:04:22.052Z,3.00
2023-04-30T10:06:54.810Z,3.13
2023-04-30T10:09:22.547Z,3.88
2023-04-30T10:11:50.622Z,3.45
2023-04-30T10:14:19.496Z,3.60
2023-04-30T10:16:58.647Z,4.10
2023-04-30T10:19:33.024Z,3.25
2023-04-30T10:21:59.708Z,3.30
2023-04-30T10:24:27.093Z,3.10
2023-04-30T10:26:54.860Z,3.10
2023-04-30T10:29:21.641Z,2.80
2023-04-30T10:31:49.853Z,2.67
2023-04-30T10:34:47.134Z,3.00
2023-04-30T10:37:38.466Z,3.45
2023-04-30T10:40:05.887Z,3.20
2023-04-30T10:42:35.450Z,3.00
2023-04-30T10:45:03.627Z,2.50
2023-04-30T10:47:31.063Z,2.55
2023-04-30T10:50:10.513Z,2.80
2023-04-30T10:52:38.366Z,2.70
2023-04-30T10:55:09.155Z,2.60
2023-04-30T10:57:43.294Z,2.40
2023-04-30T11:00:10.047Z,2.85
2023-04-30T11:02:44.151Z,3.00
2023-04-30T11:05:13.364Z,2.90
2023-04-30T11:07:49.101Z,2.95
2023-04-30T11:12:48.723Z,3.00
2023-04-30T11:15:18.244Z,2.83
2023-04-30T11:17:45.951Z,2.55
2023-04-30T11:20:13.793Z,2.70
2023-04-30T11:22:40.754Z,2.42
2023-04-30T11:25:09.692Z,2.10
2023-04-30T11:27:38.230Z,2.25
2023-04-30T11:30:11.690Z,2.22
2023-04-30T11:32:39.157Z,2.20
2023-04-30T11:35:06.640Z,2.85
2023-04-30T11:37:36.158Z,2.25
2023-04-30T11:42:39.231Z,2.45
2023-04-30T11:45:07.506Z,2.40
2023-04-30T11:47:46.220Z,2.70
2023-04-30T11:50:22.155Z,2.28
2023-04-30T11:52:50.541Z,2.30
2023-04-30T11:55:19.221Z,2.70
2023-04-30T11:57:47.276Z,2.58
2023-04-30T12:00:19.110Z,2.70
2023-04-30T12:02:48.013Z,2.22
2023-04-30T12:05:23.425Z,2.25
2023-04-30T12:08:11.229Z,2.20
2023-04-30T12:10:37.630Z,2.38
2023-04-30T12:13:04.110Z,2.20
2023-04-30T12:15:30.650Z,2.47
2023-04-30T12:17:58.647Z,2.40
2023-04-30T12:20:28.108Z,2.60
2023-04-30T12:25:22.361Z,2.15
2023-04-30T12:27:51.367Z,2.33
2023-04-30T12:30:23.842Z,2.00
2023-04-30T12:32:52.437Z,2.30
2023-04-30T12:35:21.197Z,2.20
2023-04-30T12:37:51.967Z,2.80
2023-04-30T12:40:20.246Z,2.00
2023-04-30T12:42:49.582Z,1.77
2023-04-30T12:48:01.409Z,2.10
2023-04-30T12:50:27.793Z,2.30
2023-04-30T12:52:54.299Z,1.80
2023-04-30T12:55:21.895Z,2.20
2023-04-30T12:58:08.563Z,2.25
2023-04-30T13:00:50.461Z,1.80
2023-04-30T13:03:21.529Z,2.00
2023-04-30T13:05:50.946Z,1.90
2023-04-30T13:08:18.484Z,1.90
2023-04-30T13:10:46.564Z,6.55
2023-04-30T13:13:14.120Z,7.40
2023-04-30T13:15:41.065Z,1.73
2023-04-30T13:18:10.526Z,1.60
2023-04-30T13:20:37.028Z,1.60
2023-04-30T13:23:03.843Z,1.80
2023-04-30T13:25:31.069Z,1.70
2023-04-30T13:27:57.598Z,1.67
2023-04-30T13:30:24.152Z,1.63
2023-04-30T13:32:52.457Z,1.60
2023-04-30T13:35:19.875Z,1.50
2023-04-30T13:37:47.942Z,1.80
2023-04-30T13:40:14.944Z,1.77
2023-04-30T13:42:43.204Z,1.52
2023-04-30T13:45:09.844Z,1.90
2023-04-30T13:47:36.346Z,1.70
2023-04-30T13:50:03.543Z,1.73
2023-04-30T13:52:30.291Z,1.90
2023-04-30T13:54:57.350Z,1.92
2023-04-30T13:57:24.276Z,1.90
2023-04-30T13:59:51.226Z,2.53
2023-04-30T14:02:18.856Z,2.78
2023-04-30T14:04:58.121Z,1.73
2023-04-30T14:07:31.833Z,1.80
2023-04-30T14:09:58.212Z,2.00
2023-04-30T14:12:24.634Z,1.70
2023-04-30T14:14:51.071Z,1.60
2023-04-30T14:17:17.537Z,1.58
2023-04-30T14:19:43.867Z,1.52
2023-04-30T14:22:10.452Z,1.60
2023-04-30T14:24:36.940Z,1.63
2023-04-30T14:27:04.089Z,1.77
2023-04-30T14:29:30.556Z,1.40
2023-04-30T14:31:57.020Z,1.60
2023-04-30T14:34:24.445Z,1.98
2023-04-30T14:36:50.875Z,1.55
2023-04-30T14:39:17.371Z,1.30
2023-04-30T14:41:44.300Z,1.20
2023-04-30T14:44:11.022Z,1.20
2023-04-30T14:46:37.594Z,1.33
2023-04-30T14:49:04.391Z,1.48
2023-04-30T14:51:32.217Z,1.30
2023-04-30T14:53:59.380Z,1.13
2023-04-30T14:56:25.901Z,1.17
2023-04-30T14:58:52.435Z,1.42
2023-04-30T15:01:19.045Z,1.20
2023-04-30T15:03:46.068Z,1.17
2023-04-30T15:06:13.826Z,1.33
2023-04-30T15:08:40.775Z,1.10
2023-04-30T15:11:09.887Z,5.50
2023-04-30T15:13:39.913Z,4.78
2023-04-30T15:16:06.954Z,1.30
2023-04-30T15:18:35.024Z,2.55
2023-04-30T15:21:02.261Z,1.20
2023-04-30T15:23:28.798Z,1.10
2023-04-30T15:25:55.569Z,1.33
2023-04-30T15:28:23.677Z,1.52
2023-04-30T15:30:52.281Z,1.17
2023-04-30T15:33:24.698Z,1.40
2023-04-30T15:35:51.131Z,1.00
2023-04-30T15:38:17.491Z,1.23
2023-04-30T15:40:43.936Z,1.40
2023-04-30T15:43:10.622Z,1.30
2023-04-30T15:45:37.102Z,1.20
2023-04-30T15:48:03.796Z,1.25
2023-04-30T15:50:31.123Z,1.48
2023-04-30T15:52:57.907Z,1.40
2023-04-30T15:55:24.664Z,1.45
2023-04-30T15:57:51.349Z,1.48
2023-04-30T16:00:18.451Z,1.45
2023-04-30T16:02:44.912Z,1.55
2023-04-30T16:05:12.260Z,1.50
2023-04-30T16:07:40.060Z,1.40
2023-04-30T16:10:09.731Z,1.25
2023-04-30T16:12:36.194Z,1.40
2023-04-30T16:15:04.692Z,1.50
2023-04-30T16:17:32.556Z,1.42
2023-04-30T16:20:00.433Z,1.85
2023-04-30T16:22:27.988Z,2.53
2023-04-30T16:24:54.508Z,1.30
2023-04-30T16:27:20.937Z,1.40
2023-04-30T16:29:47.403Z,1.55
2023-04-30T16:32:13.796Z,1.40
2023-04-30T16:34:40.198Z,1.30
2023-04-30T16:37:06.541Z,1.40
2023-04-30T16:39:32.917Z,1.48
2023-04-30T16:41:59.392Z,1.65
2023-04-30T16:44:25.847Z,1.50
2023-04-30T16:46:52.224Z,1.73
2023-04-30T16:49:18.622Z,1.65
2023-04-30T16:51:44.958Z,1.45
2023-04-30T16:54:11.351Z,1.50
2023-04-30T16:56:37.855Z,1.50
2023-04-30T16:59:04.221Z,1.50
2023-04-30T17:01:32.178Z,1.40
2023-04-30T17:03:58.864Z,1.50
2023-04-30T17:06:25.516Z,1.45
2023-04-30T17:08:53.306Z,1.50
2023-04-30T17:11:21.259Z,5.20
2023-04-30T17:13:47.611Z,2.83
2023-04-30T17:16:14.160Z,1.70
2023-04-30T17:18:40.639Z,1.50
2023-04-30T17:21:07.182Z,1.52
2023-04-30T17:23:33.565Z,2.30
2023-04-30T17:26:01.112Z,1.85
2023-04-30T17:28:27.532Z,1.40
2023-04-30T17:30:54.932Z,1.50
2023-04-30T17:33:21.413Z,1.80
2023-04-30T17:35:47.793Z,1.70
2023-04-30T17:38:14.171Z,1.45
2023-04-30T17:40:40.653Z,1.70
2023-04-30T17:43:07.114Z,1.50
2023-04-30T17:45:33.842Z,1.40
2023-04-30T17:48:00.309Z,1.67
2023-04-30T17:50:26.771Z,1.85
2023-04-30T17:52:53.549Z,2.03
2023-04-30T17:55:20.013Z,2.03
2023-04-30T17:57:46.839Z,2.20
2023-04-30T18:00:13.990Z,2.10
2023-04-30T18:02:40.507Z,2.20
2023-04-30T18:05:07.435Z,1.88
2023-04-30T18:07:33.887Z,1.70
2023-04-30T18:10:00.535Z,1.90
2023-04-30T18:12:26.990Z,1.95
2023-04-30T18:14:53.383Z,2.00
2023-04-30T18:17:20.273Z,1.80
2023-04-30T18:19:48.610Z,1.77
2023-04-30T18:22:15.248Z,2.20
2023-04-30T18:24:42.451Z,2.45
2023-04-30T18:27:09.325Z,3.00
2023-04-30T18:29:35.860Z,4.22
2023-04-30T18:32:02.475Z,4.43
2023-04-30T18:34:28.962Z,3.88
2023-04-30T18:36:55.357Z,3.63
2023-04-30T18:39:24.642Z,5.20
2023-04-30T18:41:51.442Z,6.05
2023-04-30T18:44:19.881Z,7.43
2023-04-30T18:46:46.249Z,8.85
2023-04-30T18:49:13.620Z,8.32
2023-04-30T18:51:40.065Z,9.15
2023-04-30T18:54:06.457Z,8.52
2023-04-30T18:56:33.160Z,8.98
2023-04-30T18:58:59.834Z,10.02
2023-04-30T19:01:27.256Z,9.18
2023-04-30T19:03:53.990Z,9.02
2023-04-30T19:06:20.533Z,9.52
2023-04-30T19:08:46.991Z,28.23
2023-04-30T19:11:13.824Z,14.50
2023-04-30T19:13:40.273Z,10.50
2023-04-30T19:16:07.202Z,10.95
2023-04-30T19:18:35.019Z,11.25
2023-04-30T19:21:02.122Z,11.32
2023-04-30T19:23:30.504Z,11.77
2023-04-30T19:25:58.618Z,11.95
2023-04-30T19:28:25.685Z,12.73
2023-04-30T19:30:54.406Z,11.85
2023-04-30T19:33:22.078Z,12.85
2023-04-30T19:35:53.317Z,12.88
2023-04-30T19:38:22.873Z,12.60
2023-04-30T19:40:54.342Z,13.00
2023-04-30T19:43:22.580Z,13.70
2023-04-30T19:45:53.549Z,15.13
2023-04-30T19:48:21.339Z,17.02
2023-04-30T19:50:48.383Z,21.77
2023-04-30T19:53:16.588Z,16.23
2023-04-30T19:55:44.203Z,15.00
2023-04-30T19:58:10.657Z,16.50
2023-04-30T20:00:38.404Z,16.20
2023-04-30T20:03:05.413Z,15.45
2023-04-30T20:05:34.085Z,16.05
2023-04-30T20:08:03.314Z,17.05
2023-04-30T20:10:34.795Z,16.38
2023-04-30T20:13:01.325Z,16.83
2023-04-30T20:15:27.962Z,17.42
2023-04-30T20:17:54.549Z,18.38
2023-04-30T20:20:25.391Z,20.42
2023-04-30T20:22:54.496Z,20.23
2023-04-30T20:25:22.414Z,20.30
2023-04-30T20:27:49.078Z,19.02
2023-04-30T20:30:15.538Z,19.33
2023-04-30T20:32:42.091Z,21.92
2023-04-30T20:35:09.112Z,19.05
2023-04-30T20:37:36.728Z,22.50
2023-04-30T20:40:03.889Z,21.65
2023-04-30T20:42:30.565Z,18.38
2023-04-30T20:44:56.951Z,15.15
2023-04-30T20:47:23.771Z,18.77
2023-04-30T20:49:50.914Z,19.17
2023-04-30T20:52:17.659Z,20.77
2023-04-30T20:54:44.132Z,20.20
2023-04-30T20:57:10.644Z,18.73
2023-04-30T20:59:37.448Z,19.27
2023-04-30T21:02:04.446Z,20.40
2023-04-30T21:04:32.051Z,20.45
2023-04-30T21:06:58.870Z,20.25
2023-04-30T21:09:25.543Z,27.33
2023-04-30T21:11:52.030Z,24.98
2023-04-30T21:14:18.510Z,23.52
2023-04-30T21:16:45.029Z,22.02
2023-04-30T21:19:11.458Z,23.80
2023-04-30T21:21:38.082Z,28.23
2023-04-30T21:24:05.164Z,27.00
2023-04-30T21:26:31.672Z,24.75
2023-04-30T21:28:58.156Z,22.85
2023-04-30T21:31:24.802Z,20.55
2023-04-30T21:33:51.330Z,21.15
2023-04-30T21:36:18.137Z,24.73
2023-04-30T21:38:44.753Z,21.05
2023-04-30T21:41:15.466Z,20.75
2023-04-30T21:43:42.334Z,20.08
2023-04-30T21:46:09.661Z,20.25
2023-04-30T21:48:38.264Z,20.80
2023-04-30T21:51:14.951Z,22.13
2023-04-30T21:53:42.297Z,21.50
2023-04-30T21:56:15.529Z,21.65
2023-04-30T21:58:42.226Z,20.00
2023-04-30T22:01:08.714Z,20.10
2023-04-30T22:03:35.548Z,21.23
2023-04-30T22:06:02.158Z,20.45
2023-04-30T22:08:28.735Z,20.55
2023-04-30T22:10:58.601Z,20.65
2023-04-30T22:13:26.208Z,21.58
2023-04-30T22:15:52.730Z,20.52
2023-04-30T22:18:20.088Z,20.00
2023-04-30T22:20:49.174Z,19.73
2023-04-30T22:23:16.555Z,17.48
2023-04-30T22:25:43.268Z,18.70
2023-04-30T22:28:10.296Z,17.75
2023-04-30T22:30:37.634Z,17.35
2023-04-30T22:33:04.248Z,18.25
2023-04-30T22:35:31.036Z,17.20
2023-04-30T22:37:57.423Z,18.48
2023-04-30T22:40:23.958Z,17.58
2023-04-30T22:42:50.499Z,17.80
2023-04-30T22:45:17.085Z,16.65
2023-04-30T22:47:45.689Z,17.40
2023-04-30T22:50:12.548Z,17.85
2023-04-30T22:52:39.028Z,19.58
2023-04-30T22:55:06.581Z,17.92
2023-04-30T22:57:33.282Z,18.17
2023-04-30T22:59:59.640Z,17.77
2023-04-30T23:02:26.344Z,17.92
2023-04-30T23:04:52.790Z,18.27
2023-04-30T23:07:19.322Z,17.92
2023-04-30T23:09:45.788Z,18.17
2023-04-30T23:12:12.305Z,18.10
2023-04-30T23:14:38.678Z,18.92
2023-04-30T23:17:05.162Z,17.60
2023-04-30T23:19:31.768Z,18.20
2023-04-30T23:21:58.215Z,17.35
2023-04-30T23:24:24.657Z,17.65
2023-04-30T23:26:51.380Z,17.67
2023-04-30T23:29:18.134Z,18.35
2023-04-30T23:31:44.609Z,17.60
2023-04-30T23:34:11.127Z,17.45
2023-04-30T23:36:37.531Z,17.90
2023-04-30T23:39:04.687Z,17.65
2023-04-30T23:41:31.493Z,18.17
2023-04-30T23:43:57.948Z,17.38
2023-04-30T23:46:24.990Z,17.20
2023-04-30T23:48:51.924Z,18.17
2023-04-30T23:51:18.994Z,18.42
2023-04-30T23:53:45.696Z,16.95
2023-04-30T23:56:12.127Z,17.45
2023-04-30T23:58:38.584Z,17.98
